Wawaka, Indiana
Current Conditions -  °F | °C
As of 8:53 AM on Thursday 30 Oct 2014 (Local Time) from KGSH Reporting Station
Overcast Overcast  
Wind Chill: 39°   Ceiling: 4000
Heat Index: 43°   Visibility: 10mi
Dew Point: 37°   Wind: 6mph
Humidity: 80%   Direction: 230°SW
Pressure: 30.14"   Gusts: NA
Location:  41.46°N, 85.48°W
Report Text: KGSH 301253Z AUTO 23005KT 10SM OVC040 06/03 A3014 RMK AO2 SLP211 T00610028
Loading
Personal Weather Stations






























Interactive Weather Map
Tropical Storm Tracking
New forecast layout! Learn more

10-Day Weather Forecast

Advertisements
Track Severe Weather on mobile